createdAt,value
2023-05-21T00:00:13.057Z,2.13
2023-05-21T00:02:44.174Z,2.20
2023-05-21T00:05:15.653Z,2.78
2023-05-21T00:07:44.706Z,2.42
2023-05-21T00:10:14.215Z,2.30
2023-05-21T00:12:43.484Z,2.30
2023-05-21T00:15:12.892Z,2.40
2023-05-21T00:17:43.620Z,2.40
2023-05-21T00:20:13.605Z,2.20
2023-05-21T00:22:43.914Z,2.13
2023-05-21T00:25:13.403Z,2.20
2023-05-21T00:27:42.393Z,2.22
2023-05-21T00:30:12.070Z,2.05
2023-05-21T00:32:41.250Z,2.33
2023-05-21T00:35:13.371Z,2.20
2023-05-21T00:37:42.573Z,2.67
2023-05-21T00:40:13.014Z,2.30
2023-05-21T00:42:42.347Z,2.65
2023-05-21T00:45:11.679Z,2.72
2023-05-21T00:47:41.860Z,2.47
2023-05-21T00:50:15.094Z,2.55
2023-05-21T00:55:14.989Z,2.45
2023-05-21T00:57:44.082Z,2.42
2023-05-21T01:00:18.529Z,2.20
2023-05-21T01:02:50.798Z,2.80
2023-05-21T01:05:22.131Z,2.55
2023-05-21T01:07:51.424Z,2.40
2023-05-21T01:10:20.465Z,2.63
2023-05-21T01:12:50.832Z,2.70
2023-05-21T01:15:20.092Z,2.55
2023-05-21T01:17:49.894Z,2.45
2023-05-21T01:20:21.367Z,2.33
2023-05-21T01:22:56.237Z,2.33
2023-05-21T01:25:26.770Z,2.30
2023-05-21T01:27:56.286Z,2.30
2023-05-21T01:30:26.664Z,2.17
2023-05-21T01:33:02.031Z,2.28
2023-05-21T01:35:35.388Z,2.75
2023-05-21T01:38:15.582Z,2.50
2023-05-21T01:40:53.418Z,2.53
2023-05-21T01:43:24.992Z,2.13
2023-05-21T01:45:56.533Z,2.15
2023-05-21T01:48:28.567Z,2.15
2023-05-21T01:51:01.533Z,1.98
2023-05-21T01:53:32.065Z,2.17
2023-05-21T01:56:03.015Z,2.15
2023-05-21T01:58:33.446Z,2.70
2023-05-21T02:01:02.896Z,2.25
2023-05-21T02:03:32.594Z,2.25
2023-05-21T02:06:01.708Z,2.30
2023-05-21T02:08:34.852Z,2.53
2023-05-21T02:11:03.876Z,2.30
2023-05-21T02:13:33.095Z,2.25
2023-05-21T02:16:02.441Z,2.58
2023-05-21T02:18:31.426Z,2.20
2023-05-21T02:21:00.693Z,2.55
2023-05-21T02:23:31.076Z,2.47
2023-05-21T02:26:00.322Z,2.22
2023-05-21T02:28:29.869Z,2.50
2023-05-21T02:30:58.813Z,2.50
2023-05-21T02:33:27.840Z,2.13
2023-05-21T02:35:56.813Z,2.30
2023-05-21T02:38:26.101Z,2.53
2023-05-21T02:40:56.980Z,2.10
2023-05-21T02:43:26.403Z,2.20
2023-05-21T02:45:55.571Z,2.30
2023-05-21T02:48:25.028Z,2.50
2023-05-21T02:50:54.717Z,2.03
2023-05-21T02:53:24.054Z,2.20
2023-05-21T02:55:53.306Z,2.30
2023-05-21T02:58:25.317Z,2.63
2023-05-21T03:00:54.890Z,2.10
2023-05-21T03:03:24.170Z,2.20
2023-05-21T03:05:54.234Z,2.38
2023-05-21T03:08:24.832Z,2.67
2023-05-21T03:10:58.580Z,2.80
2023-05-21T03:13:34.614Z,2.58
2023-05-21T03:16:06.180Z,2.75
2023-05-21T03:18:39.239Z,2.55
2023-05-21T03:21:13.479Z,2.85
2023-05-21T03:23:44.218Z,3.00
2023-05-21T03:26:19.189Z,2.50
2023-05-21T03:28:49.973Z,2.88
2023-05-21T03:31:19.958Z,3.28
2023-05-21T03:33:53.897Z,2.80
2023-05-21T03:36:32.492Z,2.90
2023-05-21T03:39:04.657Z,2.97
2023-05-21T03:41:42.664Z,3.30
2023-05-21T03:44:30.324Z,3.22
2023-05-21T03:47:07.699Z,3.15
2023-05-21T03:49:38.460Z,3.40
2023-05-21T03:52:11.008Z,3.33
2023-05-21T03:54:40.246Z,3.53
2023-05-21T03:57:11.488Z,3.40
2023-05-21T03:59:45.333Z,3.30
2023-05-21T04:02:15.169Z,4.88
2023-05-21T04:04:46.995Z,3.75
2023-05-21T04:07:19.295Z,3.78
2023-05-21T04:09:49.418Z,3.80
2023-05-21T04:12:23.236Z,3.70
2023-05-21T04:15:00.066Z,3.88
2023-05-21T04:17:30.477Z,3.35
2023-05-21T04:19:59.944Z,3.35
2023-05-21T04:22:29.459Z,3.45
2023-05-21T04:25:05.644Z,3.60
2023-05-21T04:27:39.114Z,3.60
2023-05-21T04:30:12.377Z,3.67
2023-05-21T04:32:43.517Z,3.80
2023-05-21T04:35:15.363Z,3.78
2023-05-21T04:37:46.042Z,3.67
2023-05-21T04:40:18.563Z,3.95
2023-05-21T04:42:53.509Z,3.78
2023-05-21T04:45:27.231Z,3.50
2023-05-21T04:48:00.559Z,3.30
2023-05-21T04:50:33.987Z,4.00
2023-05-21T04:53:04.546Z,3.40
2023-05-21T04:55:36.634Z,3.67
2023-05-21T04:58:11.912Z,3.67
2023-05-21T05:00:46.367Z,3.25
2023-05-21T05:03:16.411Z,3.33
2023-05-21T05:05:46.640Z,3.95
2023-05-21T05:08:16.397Z,3.33
2023-05-21T05:10:45.922Z,3.58
2023-05-21T05:13:16.063Z,3.50
2023-05-21T05:15:49.607Z,3.65
2023-05-21T05:18:20.049Z,3.80
2023-05-21T05:20:49.288Z,3.80
2023-05-21T05:23:18.947Z,3.92
2023-05-21T05:25:48.645Z,3.63
2023-05-21T05:28:17.890Z,3.95
2023-05-21T05:30:49.136Z,4.25
2023-05-21T05:33:24.455Z,5.10
2023-05-21T05:35:54.040Z,3.58
2023-05-21T05:38:24.444Z,3.45
2023-05-21T05:40:53.935Z,3.60
2023-05-21T05:43:23.700Z,3.50
2023-05-21T05:45:55.136Z,3.15
2023-05-21T05:48:28.090Z,3.80
2023-05-21T05:50:57.492Z,3.40
2023-05-21T05:53:30.020Z,3.22
2023-05-21T05:55:59.907Z,3.47
2023-05-21T05:58:33.612Z,3.17
2023-05-21T06:01:18.875Z,3.30
2023-05-21T06:03:48.060Z,3.55
2023-05-21T06:06:20.686Z,2.92
2023-05-21T06:08:50.235Z,3.40
2023-05-21T06:11:23.617Z,3.35
2023-05-21T06:13:52.954Z,3.13
2023-05-21T06:16:23.668Z,3.30
2023-05-21T06:18:53.137Z,3.33
2023-05-21T06:21:22.343Z,3.13
2023-05-21T06:23:51.540Z,3.92
2023-05-21T06:26:22.081Z,2.60
2023-05-21T06:28:54.458Z,2.97
2023-05-21T06:31:25.467Z,2.70
2023-05-21T06:33:55.027Z,3.13
2023-05-21T06:36:29.902Z,3.08
2023-05-21T06:39:00.087Z,3.17
2023-05-21T06:41:29.638Z,2.90
2023-05-21T06:44:02.899Z,2.58
2023-05-21T06:46:43.190Z,3.10
2023-05-21T06:49:17.447Z,3.00
2023-05-21T06:51:46.530Z,2.40
2023-05-21T06:54:16.895Z,2.60
2023-05-21T06:56:46.445Z,2.83
2023-05-21T06:59:18.645Z,2.90
2023-05-21T07:01:49.580Z,2.50
2023-05-21T07:04:26.665Z,2.35
2023-05-21T07:06:56.110Z,2.15
2023-05-21T07:09:26.520Z,2.20
2023-05-21T07:11:58.964Z,1.98
2023-05-21T07:14:37.171Z,2.20
2023-05-21T07:17:08.021Z,2.55
2023-05-21T07:19:39.193Z,2.38
2023-05-21T07:22:13.212Z,1.95
2023-05-21T07:24:42.397Z,2.00
2023-05-21T07:27:24.793Z,2.30
2023-05-21T07:29:56.519Z,2.20
2023-05-21T07:32:30.145Z,2.15
2023-05-21T07:35:02.778Z,2.30
2023-05-21T07:37:35.223Z,2.50
2023-05-21T07:40:06.658Z,2.38
2023-05-21T07:42:37.498Z,2.20
2023-05-21T07:45:16.398Z,2.42
2023-05-21T07:47:49.724Z,2.13
2023-05-21T07:50:19.409Z,2.40
2023-05-21T07:52:48.996Z,2.28
2023-05-21T07:55:18.521Z,2.00
2023-05-21T07:57:49.632Z,2.00
2023-05-21T08:00:21.357Z,2.50
2023-05-21T08:02:57.561Z,2.42
2023-05-21T08:05:27.830Z,2.50
2023-05-21T08:07:57.502Z,2.30
2023-05-21T08:10:29.876Z,2.35
2023-05-21T08:12:59.367Z,2.20
2023-05-21T08:15:29.651Z,2.67
2023-05-21T08:18:01.225Z,2.38
2023-05-21T08:20:32.707Z,2.13
2023-05-21T08:23:03.405Z,2.80
2023-05-21T08:25:41.037Z,4.45
2023-05-21T08:28:10.239Z,2.47
2023-05-21T08:30:39.553Z,2.33
2023-05-21T08:33:10.091Z,2.20
2023-05-21T08:35:39.526Z,2.25
2023-05-21T08:38:38.062Z,2.30
2023-05-21T08:41:23.094Z,2.58
2023-05-21T08:43:57.744Z,2.30
2023-05-21T08:46:33.108Z,2.42
2023-05-21T08:49:04.795Z,1.92
2023-05-21T08:51:35.125Z,2.00
2023-05-21T08:54:06.391Z,2.28
2023-05-21T08:56:36.853Z,2.40
2023-05-21T08:59:08.609Z,2.65
2023-05-21T09:01:42.499Z,2.20
2023-05-21T09:04:26.349Z,2.25
2023-05-21T09:06:59.423Z,2.30
2023-05-21T09:09:56.557Z,2.42
2023-05-21T09:12:28.896Z,2.78
2023-05-21T09:15:02.580Z,2.53
2023-05-21T09:17:36.347Z,2.50
2023-05-21T09:20:26.718Z,2.05
2023-05-21T09:23:04.652Z,2.58
2023-05-21T09:25:34.793Z,2.10
2023-05-21T09:28:14.104Z,2.10
2023-05-21T09:30:47.058Z,2.40
2023-05-21T09:33:27.320Z,2.15
2023-05-21T09:35:58.807Z,2.28
2023-05-21T09:38:35.300Z,2.45
2023-05-21T09:41:06.791Z,2.10
2023-05-21T09:43:43.185Z,2.33
2023-05-21T09:46:13.315Z,2.83
2023-05-21T09:48:44.744Z,2.65
2023-05-21T09:51:20.938Z,2.65
2023-05-21T09:53:53.704Z,2.55
2023-05-21T09:56:24.887Z,2.35
2023-05-21T09:58:58.566Z,2.70
2023-05-21T10:01:30.491Z,2.00
2023-05-21T10:04:09.531Z,2.33
2023-05-21T10:06:45.384Z,2.38
2023-05-21T10:09:17.161Z,2.35
2023-05-21T10:11:53.329Z,2.50
2023-05-21T10:16:54.405Z,2.20
2023-05-21T10:19:25.889Z,2.28
2023-05-21T10:21:58.180Z,2.75
2023-05-21T10:24:27.956Z,2.50
2023-05-21T10:26:57.777Z,2.08
2023-05-21T10:29:27.513Z,2.42
2023-05-21T10:31:57.617Z,2.38
2023-05-21T10:34:26.979Z,2.30
2023-05-21T10:37:00.721Z,2.42
2023-05-21T10:39:32.345Z,2.60
2023-05-21T10:42:12.961Z,3.10
2023-05-21T10:44:54.969Z,2.28
2023-05-21T10:47:48.229Z,2.55
2023-05-21T10:50:39.391Z,3.00
2023-05-21T10:53:21.287Z,2.22
2023-05-21T10:56:13.803Z,3.20
2023-05-21T10:59:15.430Z,2.58
2023-05-21T11:01:47.233Z,2.05
2023-05-21T11:04:43.345Z,2.15
2023-05-21T11:07:13.441Z,2.45
2023-05-21T11:09:44.338Z,2.42
2023-05-21T11:12:15.334Z,2.17
2023-05-21T11:14:58.259Z,2.10
2023-05-21T11:17:42.186Z,2.40
2023-05-21T11:20:15.343Z,2.28
2023-05-21T11:22:46.933Z,2.20
2023-05-21T11:25:17.579Z,2.58
2023-05-21T11:27:49.186Z,2.53
2023-05-21T11:30:20.462Z,2.20
2023-05-21T11:33:19.896Z,2.00
2023-05-21T11:36:13.694Z,2.65
2023-05-21T11:38:43.200Z,2.10
2023-05-21T11:41:13.783Z,2.20
2023-05-21T11:43:44.979Z,2.10
2023-05-21T11:46:16.622Z,3.10
2023-05-21T11:48:46.494Z,2.17
2023-05-21T11:51:23.942Z,2.53
2023-05-21T11:53:57.317Z,2.40
2023-05-21T11:56:31.909Z,2.55
2023-05-21T11:59:04.372Z,2.08
2023-05-21T12:01:33.888Z,2.40
2023-05-21T12:04:05.770Z,2.47
2023-05-21T12:06:35.549Z,2.45
2023-05-21T12:09:05.997Z,2.65
2023-05-21T12:11:37.791Z,2.30
2023-05-21T12:14:09.847Z,2.30
2023-05-21T12:16:43.281Z,2.25
2023-05-21T12:19:12.982Z,2.88
2023-05-21T12:21:45.497Z,2.30
2023-05-21T12:24:16.682Z,2.30
2023-05-21T12:26:48.120Z,2.92
2023-05-21T12:29:23.595Z,2.55
2023-05-21T12:31:52.901Z,3.30
2023-05-21T12:34:41.444Z,2.00
2023-05-21T12:37:10.966Z,2.50
2023-05-21T12:39:54.488Z,2.70
2023-05-21T12:42:40.834Z,2.33
2023-05-21T12:45:11.856Z,2.15
2023-05-21T12:47:41.416Z,2.28
2023-05-21T12:50:14.251Z,3.03
2023-05-21T12:52:47.309Z,2.70
2023-05-21T12:55:18.522Z,2.55
2023-05-21T12:58:01.205Z,2.53
2023-05-21T13:03:01.220Z,2.42
2023-05-21T13:05:30.668Z,2.50
2023-05-21T13:08:00.113Z,2.80
2023-05-21T13:10:29.477Z,2.33
2023-05-21T13:13:00.613Z,2.22
2023-05-21T13:15:32.758Z,3.47
2023-05-21T13:18:02.412Z,2.38
2023-05-21T13:20:33.463Z,2.10
2023-05-21T13:23:06.722Z,2.40
2023-05-21T13:25:37.251Z,2.38
2023-05-21T13:28:10.419Z,2.65
2023-05-21T13:30:40.223Z,2.28
2023-05-21T13:33:09.747Z,2.20
2023-05-21T13:35:41.170Z,2.38
2023-05-21T13:38:11.146Z,2.40
2023-05-21T13:40:40.992Z,2.63
2023-05-21T13:43:11.933Z,2.42
2023-05-21T13:45:40.996Z,2.83
2023-05-21T13:48:10.545Z,3.17
2023-05-21T13:50:41.592Z,2.50
2023-05-21T13:53:10.968Z,2.60
2023-05-21T13:55:40.143Z,2.45
2023-05-21T13:58:09.561Z,2.20
2023-05-21T14:00:45.373Z,2.72
2023-05-21T14:03:22.841Z,1.85
2023-05-21T14:05:53.996Z,2.10
2023-05-21T14:08:23.861Z,2.10
2023-05-21T14:10:55.836Z,2.00
2023-05-21T14:13:25.228Z,2.47
2023-05-21T14:15:55.855Z,1.95
2023-05-21T14:18:25.518Z,2.17
2023-05-21T14:20:55.252Z,2.47
2023-05-21T14:23:24.483Z,2.00
2023-05-21T14:25:57.256Z,2.65
2023-05-21T14:28:30.433Z,2.30
2023-05-21T14:31:07.707Z,2.25
2023-05-21T14:34:10.991Z,1.92
2023-05-21T14:36:40.527Z,2.20
2023-05-21T14:39:10.730Z,2.08
2023-05-21T14:41:43.310Z,2.17
2023-05-21T14:44:13.172Z,1.80
2023-05-21T14:46:44.133Z,1.98
2023-05-21T14:49:14.687Z,1.95
2023-05-21T14:51:45.052Z,2.10
2023-05-21T14:54:14.177Z,2.40
2023-05-21T14:56:43.741Z,2.30
2023-05-21T14:59:14.490Z,2.17
2023-05-21T15:01:45.479Z,2.45
2023-05-21T15:04:15.748Z,2.00
2023-05-21T15:06:45.022Z,2.42
2023-05-21T15:09:15.293Z,1.98
2023-05-21T15:11:46.196Z,2.00
2023-05-21T15:14:15.533Z,2.23
2023-05-21T15:16:46.325Z,2.30
2023-05-21T15:19:15.933Z,1.98
2023-05-21T15:21:45.339Z,2.33
2023-05-21T15:24:14.978Z,2.10
2023-05-21T15:26:44.846Z,2.10
2023-05-21T15:29:14.045Z,2.20
2023-05-21T15:31:43.483Z,2.22
2023-05-21T15:34:21.192Z,2.25
2023-05-21T15:36:53.556Z,2.33
2023-05-21T15:39:22.798Z,2.30
2023-05-21T15:41:53.829Z,2.40
2023-05-21T15:44:23.527Z,2.70
2023-05-21T15:46:59.344Z,2.38
2023-05-21T15:49:30.003Z,2.40
2023-05-21T15:52:03.150Z,2.83
2023-05-21T15:54:35.606Z,2.33
2023-05-21T15:57:05.209Z,2.63
2023-05-21T15:59:37.819Z,2.60
2023-05-21T16:02:11.055Z,3.03
2023-05-21T16:04:41.558Z,2.83
2023-05-21T16:08:18.636Z,3.10
2023-05-21T16:10:32.405Z,3.38
2023-05-21T16:13:02.380Z,3.22
2023-05-21T16:15:33.637Z,4.28
2023-05-21T16:18:02.729Z,3.40
2023-05-21T16:20:36.261Z,3.72
2023-05-21T16:23:06.823Z,5.05
2023-05-21T16:25:36.678Z,4.03
2023-05-21T16:28:06.577Z,3.60
2023-05-21T16:30:36.032Z,3.78
2023-05-21T16:33:09.335Z,3.50
2023-05-21T16:35:40.216Z,3.60
2023-05-21T16:38:09.508Z,3.47
2023-05-21T16:40:40.668Z,3.30
2023-05-21T16:43:10.267Z,3.22
2023-05-21T16:45:41.749Z,3.00
2023-05-21T16:48:23.975Z,3.28
2023-05-21T16:50:59.008Z,3.38
2023-05-21T16:53:29.744Z,3.20
2023-05-21T16:56:00.615Z,3.00
2023-05-21T16:58:33.356Z,4.78
2023-05-21T17:01:09.066Z,2.75
2023-05-21T17:03:43.206Z,3.25
2023-05-21T17:06:15.326Z,3.00
2023-05-21T17:08:47.670Z,2.58
2023-05-21T17:11:19.910Z,2.30
2023-05-21T17:13:49.350Z,2.57
2023-05-21T17:16:19.362Z,2.40
2023-05-21T17:18:50.559Z,2.60
2023-05-21T17:21:21.961Z,2.40
2023-05-21T17:23:51.173Z,2.60
2023-05-21T17:26:22.002Z,2.60
2023-05-21T17:28:51.363Z,2.90
2023-05-21T17:31:22.172Z,2.30
2023-05-21T17:34:24.728Z,3.03
2023-05-21T17:36:56.507Z,2.80
2023-05-21T17:39:26.552Z,2.90
2023-05-21T17:42:12.951Z,2.45
2023-05-21T17:44:44.256Z,2.58
2023-05-21T17:47:13.271Z,2.53
2023-05-21T17:49:47.801Z,2.40
2023-05-21T17:52:18.379Z,2.75
2023-05-21T17:54:47.848Z,2.55
2023-05-21T17:57:19.872Z,2.67
2023-05-21T17:59:49.287Z,3.15
2023-05-21T18:02:18.546Z,2.83
2023-05-21T18:04:48.315Z,2.60
2023-05-21T18:07:19.193Z,2.40
2023-05-21T18:09:49.096Z,3.45
2023-05-21T18:12:18.561Z,2.63
2023-05-21T18:14:48.201Z,2.60
2023-05-21T18:17:23.669Z,2.60
2023-05-21T18:19:53.553Z,2.47
2023-05-21T18:22:25.029Z,3.45
2023-05-21T18:24:56.849Z,2.80
2023-05-21T18:27:28.719Z,3.38
2023-05-21T18:30:02.545Z,3.20
2023-05-21T18:32:40.480Z,3.00
2023-05-21T18:35:15.046Z,2.90
2023-05-21T18:37:55.638Z,3.47
2023-05-21T18:40:29.068Z,2.90
2023-05-21T18:43:08.836Z,3.08
2023-05-21T18:45:38.366Z,3.42
2023-05-21T18:48:08.398Z,3.08
2023-05-21T18:50:38.681Z,3.42
2023-05-21T18:53:09.596Z,3.50
2023-05-21T18:55:39.266Z,3.38
2023-05-21T18:58:08.488Z,4.15
2023-05-21T19:00:39.909Z,3.92
2023-05-21T19:03:10.333Z,4.57
2023-05-21T19:05:40.358Z,4.40
2023-05-21T19:08:21.570Z,4.00
2023-05-21T19:10:53.065Z,4.80
2023-05-21T19:13:29.971Z,4.47
2023-05-21T19:16:00.455Z,4.75
2023-05-21T19:18:32.503Z,4.75
2023-05-21T19:21:07.185Z,5.88
2023-05-21T19:23:52.626Z,4.35
2023-05-21T19:26:24.210Z,5.43
2023-05-21T19:29:07.402Z,5.35
2023-05-21T19:31:43.485Z,5.38
2023-05-21T19:34:30.401Z,5.70
2023-05-21T19:37:09.213Z,6.38
2023-05-21T19:39:42.776Z,5.28
2023-05-21T19:42:12.069Z,4.82
2023-05-21T19:44:43.201Z,4.97
2023-05-21T19:47:15.645Z,5.25
2023-05-21T19:49:53.621Z,5.13
2023-05-21T19:52:23.259Z,5.68
2023-05-21T19:54:56.584Z,5.95
2023-05-21T19:57:27.098Z,5.78
2023-05-21T19:59:56.380Z,5.57
2023-05-21T20:02:52.024Z,5.80
2023-05-21T20:05:23.759Z,5.53
2023-05-21T20:07:58.240Z,5.90
2023-05-21T20:10:29.979Z,5.53
2023-05-21T20:13:20.327Z,5.78
2023-05-21T20:15:52.574Z,4.78
2023-05-21T20:18:27.152Z,5.10
2023-05-21T20:20:59.543Z,5.18
2023-05-21T20:23:31.586Z,5.28
2023-05-21T20:26:02.518Z,5.93
2023-05-21T20:28:35.282Z,5.07
2023-05-21T20:31:04.670Z,5.30
2023-05-21T20:33:42.183Z,5.43
2023-05-21T20:36:16.822Z,5.07
2023-05-21T20:38:48.622Z,7.32
2023-05-21T20:41:20.226Z,5.18
2023-05-21T20:43:55.511Z,13.93
2023-05-21T20:46:31.038Z,7.45
2023-05-21T20:49:03.220Z,5.50
2023-05-21T20:51:35.363Z,5.25
2023-05-21T20:54:05.007Z,5.15
2023-05-21T20:56:41.997Z,5.95
2023-05-21T20:59:12.644Z,5.60
2023-05-21T21:01:42.678Z,5.70
2023-05-21T21:04:11.984Z,5.40
2023-05-21T21:06:41.377Z,5.50
2023-05-21T21:09:10.594Z,5.10
2023-05-21T21:11:42.932Z,5.47
2023-05-21T21:14:23.517Z,5.45
2023-05-21T21:16:58.411Z,5.45
2023-05-21T21:19:28.055Z,5.43
2023-05-21T21:21:57.752Z,5.80
2023-05-21T21:24:26.908Z,6.30
2023-05-21T21:26:57.481Z,5.75
2023-05-21T21:29:28.741Z,6.40
2023-05-21T21:32:00.945Z,6.57
2023-05-21T21:34:30.202Z,6.07
2023-05-21T21:36:59.993Z,6.43
2023-05-21T21:39:29.631Z,5.70
2023-05-21T21:42:00.682Z,6.18
2023-05-21T21:44:30.169Z,6.20
2023-05-21T21:46:59.672Z,5.63
2023-05-21T21:49:31.684Z,6.18
2023-05-21T21:52:01.563Z,6.20
2023-05-21T21:54:31.032Z,6.20
2023-05-21T21:57:04.325Z,5.63
2023-05-21T21:59:34.006Z,5.63
2023-05-21T22:02:03.376Z,5.75
2023-05-21T22:04:32.893Z,5.72
2023-05-21T22:07:04.788Z,5.43
2023-05-21T22:09:33.732Z,5.35
2023-05-21T22:12:07.771Z,5.35
2023-05-21T22:14:37.477Z,5.50
2023-05-21T22:17:08.429Z,5.20
2023-05-21T22:19:37.783Z,5.57
2023-05-21T22:22:07.096Z,6.05
2023-05-21T22:24:36.221Z,5.28
2023-05-21T22:27:07.224Z,5.47
2023-05-21T22:29:36.524Z,5.32
2023-05-21T22:32:06.289Z,5.45
2023-05-21T22:34:35.352Z,5.32
2023-05-21T22:37:05.114Z,5.40
2023-05-21T22:39:34.108Z,4.97
2023-05-21T22:42:04.121Z,5.68
2023-05-21T22:44:34.885Z,6.03
2023-05-21T22:47:04.670Z,4.97
2023-05-21T22:49:33.941Z,4.80
2023-05-21T22:52:05.614Z,5.40
2023-05-21T22:54:35.484Z,4.97
2023-05-21T22:57:05.249Z,5.10
2023-05-21T22:59:36.178Z,5.22
2023-05-21T23:02:06.151Z,5.32
2023-05-21T23:04:43.816Z,5.35
2023-05-21T23:07:16.129Z,5.55
2023-05-21T23:09:45.391Z,5.82
2023-05-21T23:12:14.821Z,6.28
2023-05-21T23:14:45.248Z,5.95
2023-05-21T23:17:14.550Z,6.15
2023-05-21T23:19:44.121Z,5.90
2023-05-21T23:22:13.237Z,5.55
2023-05-21T23:24:42.427Z,4.97
2023-05-21T23:27:13.945Z,5.70
2023-05-21T23:29:44.661Z,5.25
2023-05-21T23:32:14.038Z,5.70
2023-05-21T23:34:43.574Z,5.25
2023-05-21T23:37:12.950Z,5.22
2023-05-21T23:39:43.670Z,5.05
2023-05-21T23:42:13.034Z,5.70
2023-05-21T23:44:41.984Z,5.32
2023-05-21T23:47:12.819Z,5.35
2023-05-21T23:49:41.988Z,5.85
2023-05-21T23:52:13.153Z,5.00
2023-05-21T23:54:42.311Z,5.15
2023-05-21T23:57:11.878Z,5.03
2023-05-21T23:59:40.911Z,5.30
